Terminal Aerodrome Forecast
Issued by NWS

Home | Current Version | Previous Version | Text Only | Print | Product List | Glossary On
Versions: 1 2 3 4 5 6 7 8 9 10 11 12 13 14 15 16 17 18 19 20 21 22 23 24 25
000
FTUS43 KAPX 020200 AAB
TAFPLN
TAF AMD
KPLN 020216Z 0202/0224 13004KT 6SM BR OVC005
     FM020900 15004KT 4SM -SHRA BR SCT008 OVC015
     FM021400 16008KT 5SM -SHRA BR OVC018=

USA.gov is the U.S. government's official web portal to all federal, state and local government web resources and services.